createdAt,value
2023-03-05T00:01:08.449Z,95906.37
2023-03-05T00:03:35.812Z,95905.52
2023-03-05T00:06:02.836Z,95904.52
2023-03-05T00:08:30.457Z,95901.63
2023-03-05T00:11:02.742Z,95902.81
2023-03-05T00:13:30.310Z,95901.54
2023-03-05T00:15:57.096Z,95899.98
2023-03-05T00:18:24.708Z,95901.62
2023-03-05T00:20:51.341Z,95908.05
2023-03-05T00:23:18.182Z,95917.59
2023-03-05T00:25:46.157Z,95912.86
2023-03-05T00:28:13.189Z,95916.77
2023-03-05T00:30:40.894Z,95921.19
2023-03-05T00:33:08.518Z,95912.98
2023-03-05T00:35:43.659Z,95914.83
2023-03-05T00:38:11.628Z,95909.51
2023-03-05T00:40:40.107Z,95911.01
2023-03-05T00:43:07.065Z,95908.54
2023-03-05T00:45:33.787Z,95906.23
2023-03-05T00:48:00.956Z,95913.94
2023-03-05T00:50:27.885Z,95912.02
2023-03-05T00:52:54.732Z,95907.03
2023-03-05T00:55:21.791Z,95911.04
2023-03-05T00:57:48.861Z,95907.83
2023-03-05T01:00:16.400Z,95909.81
2023-03-05T01:02:43.228Z,95906.41
2023-03-05T01:05:14.190Z,95905.23
2023-03-05T01:07:41.109Z,95908.37
2023-03-05T01:10:08.968Z,95907.27
2023-03-05T01:12:35.737Z,95903.54
2023-03-05T01:15:04.290Z,95905.95
2023-03-05T01:17:31.130Z,95904.01
2023-03-05T01:19:57.900Z,95902.16
2023-03-05T01:22:24.706Z,95900.95
2023-03-05T01:24:51.557Z,95896.80
2023-03-05T01:27:18.396Z,95893.16
2023-03-05T01:29:45.138Z,95892.04
2023-03-05T01:32:11.994Z,95893.86
2023-03-05T01:34:39.025Z,95887.27
2023-03-05T01:37:05.683Z,95890.11
2023-03-05T01:39:32.513Z,95892.14
2023-03-05T01:41:59.354Z,95887.38
2023-03-05T01:44:28.361Z,95891.24
2023-03-05T01:46:56.310Z,95890.64
2023-03-05T01:49:40.864Z,95891.95
2023-03-05T01:52:21.146Z,95886.94
2023-03-05T01:54:53.090Z,95885.50
2023-03-05T01:57:33.031Z,95889.59
2023-03-05T02:00:05.661Z,95886.85
2023-03-05T02:02:43.049Z,95887.23
2023-03-05T02:05:15.520Z,95889.66
2023-03-05T02:07:44.574Z,95893.61
2023-03-05T02:10:16.470Z,95895.77
2023-03-05T02:12:43.587Z,95896.67
2023-03-05T02:15:11.660Z,95897.61
2023-03-05T02:17:38.921Z,95896.34
2023-03-05T02:20:10.280Z,95894.98
2023-03-05T02:22:37.033Z,95896.86
2023-03-05T02:25:16.272Z,95891.67
2023-03-05T02:27:50.969Z,95896.04
2023-03-05T02:30:18.830Z,95897.39
2023-03-05T02:32:45.604Z,95895.85
2023-03-05T02:35:12.999Z,95900.11
2023-03-05T02:37:40.363Z,95897.98
2023-03-05T02:40:10.140Z,95903.41
2023-03-05T02:42:37.141Z,95899.00
2023-03-05T02:45:05.627Z,95897.47
2023-03-05T02:47:32.665Z,95901.16
2023-03-05T02:49:59.613Z,95898.59
2023-03-05T02:52:28.130Z,95896.14
2023-03-05T02:54:54.936Z,95897.84
2023-03-05T02:57:23.535Z,95898.50
2023-03-05T02:59:50.826Z,95897.14
2023-03-05T03:02:17.626Z,95898.20
2023-03-05T03:04:45.281Z,95898.25
2023-03-05T03:07:13.562Z,95895.35
2023-03-05T03:09:42.354Z,95895.95
2023-03-05T03:12:10.125Z,95894.89
2023-03-05T03:14:40.645Z,95893.14
2023-03-05T03:17:18.061Z,95891.49
2023-03-05T03:19:45.819Z,95886.92
2023-03-05T03:22:14.892Z,95886.08
2023-03-05T03:24:43.064Z,95884.71
2023-03-05T03:27:10.433Z,95884.60
2023-03-05T03:29:37.382Z,95882.69
2023-03-05T03:32:04.389Z,95884.88
2023-03-05T03:34:31.157Z,95883.64
2023-03-05T03:36:57.894Z,95885.43
2023-03-05T03:39:24.960Z,95886.70
2023-03-05T03:41:53.013Z,95885.01
2023-03-05T03:44:20.686Z,95895.72
2023-03-05T03:46:49.270Z,95895.23
2023-03-05T03:49:22.599Z,95893.80
2023-03-05T03:51:51.353Z,95900.02
2023-03-05T03:54:18.813Z,95899.59
2023-03-05T03:56:45.554Z,95902.11
2023-03-05T03:59:13.823Z,95900.29
2023-03-05T04:01:40.645Z,95901.83
2023-03-05T04:04:08.454Z,95904.52
2023-03-05T04:06:35.361Z,95902.59
2023-03-05T04:09:02.389Z,95902.77
2023-03-05T04:11:29.003Z,95902.98
2023-03-05T04:13:55.650Z,95899.38
2023-03-05T04:16:23.083Z,95899.66
2023-03-05T04:18:50.147Z,95900.25
2023-03-05T04:21:17.131Z,95902.23
2023-03-05T04:23:44.098Z,95899.70
2023-03-05T04:26:10.742Z,95901.82
2023-03-05T04:28:37.693Z,95900.22
2023-03-05T04:31:04.604Z,95894.65
2023-03-05T04:33:31.783Z,95900.60
2023-03-05T04:35:58.652Z,95899.45
2023-03-05T04:38:25.351Z,95906.20
2023-03-05T04:40:52.140Z,95905.77
2023-03-05T04:43:18.839Z,95905.35
2023-03-05T04:45:45.469Z,95900.52
2023-03-05T04:48:12.436Z,95901.58
2023-03-05T04:50:39.440Z,95904.20
2023-03-05T04:53:06.226Z,95905.44
2023-03-05T04:55:33.564Z,95904.63
2023-03-05T04:58:00.401Z,95903.14
2023-03-05T05:00:27.156Z,95902.18
2023-03-05T05:02:54.051Z,95904.56
2023-03-05T05:05:24.288Z,95907.42
2023-03-05T05:07:58.339Z,95911.58
2023-03-05T05:10:26.101Z,95910.51
2023-03-05T05:12:53.473Z,95913.59
2023-03-05T05:15:20.693Z,95914.92
2023-03-05T05:17:48.283Z,95921.14
2023-03-05T05:20:16.542Z,95923.57
2023-03-05T05:22:44.054Z,95924.48
2023-03-05T05:25:10.868Z,95926.96
2023-03-05T05:27:39.524Z,95935.56
2023-03-05T05:30:07.176Z,95933.37
2023-03-05T05:32:34.860Z,95932.59
2023-03-05T05:35:01.922Z,95933.53
2023-03-05T05:37:30.068Z,95936.20
2023-03-05T05:39:57.031Z,95938.41
2023-03-05T05:42:24.794Z,95938.07
2023-03-05T05:44:51.438Z,95938.73
2023-03-05T05:47:18.771Z,95941.42
2023-03-05T05:49:45.625Z,95941.08
2023-03-05T05:52:13.694Z,95944.46
2023-03-05T05:54:40.340Z,95951.70
2023-03-05T05:57:07.395Z,95953.77
2023-03-05T05:59:34.331Z,95956.73
2023-03-05T06:02:01.174Z,95963.29
2023-03-05T06:04:28.003Z,95969.13
2023-03-05T06:06:54.760Z,95969.70
2023-03-05T06:09:21.358Z,95977.92
2023-03-05T06:11:48.077Z,95972.55
2023-03-05T06:14:14.772Z,95976.99
2023-03-05T06:16:41.660Z,95978.96
2023-03-05T06:19:11.636Z,95977.71
2023-03-05T06:21:38.617Z,95979.23
2023-03-05T06:24:05.827Z,95980.90
2023-03-05T06:26:32.770Z,95986.21
2023-03-05T06:28:59.704Z,95989.06
2023-03-05T06:31:27.893Z,95986.50
2023-03-05T06:33:57.636Z,95991.59
2023-03-05T06:36:25.488Z,95996.63
2023-03-05T06:38:53.424Z,95997.66
2023-03-05T06:41:24.483Z,95993.36
2023-03-05T06:43:51.365Z,95995.77
2023-03-05T06:46:27.527Z,95992.80
2023-03-05T06:49:00.083Z,96000.98
2023-03-05T06:51:31.303Z,95996.63
2023-03-05T06:54:04.917Z,95997.63
2023-03-05T06:56:32.601Z,95990.01
2023-03-05T06:58:59.191Z,95986.08
2023-03-05T07:01:26.085Z,95985.55
2023-03-05T07:03:54.640Z,95985.64
2023-03-05T07:06:22.204Z,95992.30
2023-03-05T07:08:48.924Z,95991.08
2023-03-05T07:11:20.399Z,95994.48
2023-03-05T07:13:48.355Z,95998.27
2023-03-05T07:16:17.948Z,95997.91
2023-03-05T07:18:45.425Z,96001.70
2023-03-05T07:21:18.723Z,95996.89
2023-03-05T07:23:45.450Z,95999.58
2023-03-05T07:26:12.818Z,95999.70
2023-03-05T07:28:40.505Z,95996.91
2023-03-05T07:31:11.650Z,96001.36
2023-03-05T07:33:39.076Z,95999.54
2023-03-05T07:36:10.320Z,96003.28
2023-03-05T07:38:37.393Z,96001.40
2023-03-05T07:41:11.576Z,96000.49
2023-03-05T07:43:39.160Z,96000.41
2023-03-05T07:46:07.602Z,96000.02
2023-03-05T07:48:34.776Z,95994.20
2023-03-05T07:51:02.890Z,95987.08
2023-03-05T07:53:29.965Z,95991.09
2023-03-05T07:55:57.458Z,95989.67
2023-03-05T07:58:24.285Z,95986.70
2023-03-05T08:00:51.038Z,95989.05
2023-03-05T08:03:18.087Z,95986.65
2023-03-05T08:05:45.032Z,95990.26
2023-03-05T08:08:12.173Z,95989.93
2023-03-05T08:10:39.427Z,95987.57
2023-03-05T08:13:06.371Z,95984.97
2023-03-05T08:15:33.738Z,95983.54
2023-03-05T08:18:01.124Z,95985.11
2023-03-05T08:20:27.894Z,95985.91
2023-03-05T08:22:54.773Z,95982.10
2023-03-05T08:25:22.308Z,95976.94
2023-03-05T08:27:48.898Z,95977.21
2023-03-05T08:30:21.128Z,95975.45
2023-03-05T08:32:51.046Z,95973.34
2023-03-05T08:35:17.700Z,95973.36
2023-03-05T08:37:44.277Z,95968.52
2023-03-05T08:40:11.972Z,95970.16
2023-03-05T08:42:38.545Z,95968.48
2023-03-05T08:45:05.971Z,95972.70
2023-03-05T08:47:32.582Z,95967.93
2023-03-05T08:49:59.154Z,95966.42
2023-03-05T08:52:26.926Z,95962.98
2023-03-05T08:54:53.642Z,95961.21
2023-03-05T08:57:20.415Z,95961.00
2023-03-05T08:59:47.294Z,95965.25
2023-03-05T09:02:14.088Z,95961.46
2023-03-05T09:04:40.936Z,95963.70
2023-03-05T09:07:07.674Z,95961.81
2023-03-05T09:09:34.516Z,95964.68
2023-03-05T09:12:02.377Z,95961.09
2023-03-05T09:14:29.253Z,95961.21
2023-03-05T09:16:57.102Z,95959.00
2023-03-05T09:19:27.009Z,95952.29
2023-03-05T09:21:56.027Z,95955.73
2023-03-05T09:24:23.750Z,95953.91
2023-03-05T09:26:50.557Z,95947.08
2023-03-05T09:29:17.340Z,95942.59
2023-03-05T09:31:44.182Z,95943.53
2023-03-05T09:34:11.792Z,95943.50
2023-03-05T09:36:38.596Z,95948.02
2023-03-05T09:39:06.462Z,95947.36
2023-03-05T09:41:54.944Z,95941.47
2023-03-05T09:44:30.725Z,95940.68
2023-03-05T09:47:44.976Z,95937.39
2023-03-05T09:50:31.953Z,95931.85
2023-03-05T09:53:05.715Z,95932.95
2023-03-05T09:55:39.866Z,95931.98
2023-03-05T09:58:13.260Z,95926.09
2023-03-05T10:00:49.695Z,95929.64
2023-03-05T10:03:24.901Z,95932.14
2023-03-05T10:05:59.931Z,95928.59
2023-03-05T10:08:34.591Z,95930.67
2023-03-05T10:11:10.384Z,95930.25
2023-03-05T10:13:42.332Z,95929.30
2023-03-05T10:16:34.259Z,95928.75
2023-03-05T10:19:32.222Z,95928.68
2023-03-05T10:22:18.772Z,95923.05
2023-03-05T10:25:11.557Z,95919.64
2023-03-05T10:27:58.889Z,95918.85
2023-03-05T10:30:54.261Z,95919.48
2023-03-05T10:33:26.898Z,95914.67
2023-03-05T10:36:10.638Z,95906.73
2023-03-05T10:38:52.227Z,95897.79
2023-03-05T10:41:55.223Z,95898.27
2023-03-05T10:44:44.107Z,95895.70
2023-03-05T10:47:20.142Z,95893.23
2023-03-05T10:49:52.748Z,95892.02
2023-03-05T10:52:36.463Z,95895.30
2023-03-05T10:55:15.301Z,95894.41
2023-03-05T10:57:42.040Z,95890.31
2023-03-05T11:00:23.603Z,95887.33
2023-03-05T11:03:05.012Z,95881.00
2023-03-05T11:05:45.559Z,95873.13
2023-03-05T11:08:24.380Z,95867.97
2023-03-05T11:11:09.858Z,95868.82
2023-03-05T11:13:58.672Z,95862.51
2023-03-05T11:16:29.811Z,95860.49
2023-03-05T11:19:23.974Z,95861.76
2023-03-05T11:22:15.568Z,95851.63
2023-03-05T11:24:46.066Z,95853.49
2023-03-05T11:27:35.266Z,95845.09
2023-03-05T11:30:03.039Z,95842.81
2023-03-05T11:32:30.867Z,95834.70
2023-03-05T11:34:57.839Z,95828.61
2023-03-05T11:37:26.839Z,95823.02
2023-03-05T11:40:15.690Z,95824.29
2023-03-05T11:42:43.286Z,95817.45
2023-03-05T11:45:19.350Z,95808.97
2023-03-05T11:47:52.328Z,95801.66
2023-03-05T11:50:24.281Z,95796.20
2023-03-05T11:52:55.200Z,95794.19
2023-03-05T11:55:29.529Z,95797.63
2023-03-05T11:58:04.959Z,95796.90
2023-03-05T12:00:35.959Z,95793.99
2023-03-05T12:03:11.130Z,95792.90
2023-03-05T12:05:43.564Z,95796.96
2023-03-05T12:08:15.353Z,95792.35
2023-03-05T12:10:42.342Z,95791.75
2023-03-05T12:13:22.529Z,95786.28
2023-03-05T12:16:19.703Z,95776.14
2023-03-05T12:19:09.483Z,95773.67
2023-03-05T12:21:39.227Z,95767.33
2023-03-05T12:24:26.706Z,95765.62
2023-03-05T12:27:03.930Z,95766.70
2023-03-05T12:29:30.633Z,95766.09
2023-03-05T12:31:58.566Z,95762.19
2023-03-05T12:34:40.668Z,95759.81
2023-03-05T12:37:33.576Z,95757.36
2023-03-05T12:40:20.000Z,95759.71
2023-03-05T12:42:56.877Z,95757.33
2023-03-05T12:45:30.864Z,95755.42
2023-03-05T12:47:57.487Z,95758.98
2023-03-05T12:50:27.286Z,95752.98
2023-03-05T12:53:09.481Z,95756.70
2023-03-05T12:55:48.094Z,95755.83
2023-03-05T12:58:25.358Z,95761.00
2023-03-05T13:00:56.505Z,95760.60
2023-03-05T13:03:36.903Z,95756.47
2023-03-05T13:06:06.104Z,95752.40
2023-03-05T13:08:37.259Z,95751.92
2023-03-05T13:11:18.186Z,95747.83
2023-03-05T13:13:46.941Z,95746.55
2023-03-05T13:16:28.571Z,95744.52
2023-03-05T13:18:58.947Z,95747.09
2023-03-05T13:21:31.266Z,95741.85
2023-03-05T13:24:00.870Z,95745.48
2023-03-05T13:26:38.177Z,95738.72
2023-03-05T13:29:08.766Z,95737.48
2023-03-05T13:31:39.943Z,95738.13
2023-03-05T13:34:18.845Z,95746.33
2023-03-05T13:36:55.759Z,95740.85
2023-03-05T13:39:27.201Z,95738.55
2023-03-05T13:42:16.970Z,95738.44
2023-03-05T13:44:53.433Z,95750.19
2023-03-05T13:47:22.103Z,95751.30
2023-03-05T13:49:57.033Z,95755.30
2023-03-05T13:52:29.410Z,95758.14
2023-03-05T13:54:57.126Z,95755.23
2023-03-05T13:57:40.202Z,95758.69
2023-03-05T14:00:32.482Z,95757.83
2023-03-05T14:03:08.889Z,95755.96
2023-03-05T14:05:35.839Z,95763.37
2023-03-05T14:08:02.990Z,95757.92
2023-03-05T14:10:36.270Z,95759.20
2023-03-05T14:13:06.375Z,95757.21
2023-03-05T14:15:35.208Z,95755.95
2023-03-05T14:18:11.146Z,95757.36
2023-03-05T14:21:08.299Z,95756.44
2023-03-05T14:23:42.980Z,95758.10
2023-03-05T14:26:22.273Z,95755.84
2023-03-05T14:29:17.186Z,95757.27
2023-03-05T14:31:55.938Z,95753.75
2023-03-05T14:34:32.290Z,95753.89
2023-03-05T14:37:03.816Z,95754.30
2023-03-05T14:39:49.393Z,95751.02
2023-03-05T14:42:28.727Z,95747.14
2023-03-05T14:44:57.967Z,95749.88
2023-03-05T14:47:26.586Z,95745.48
2023-03-05T14:49:54.295Z,95749.42
2023-03-05T14:52:23.600Z,95751.27
2023-03-05T14:54:51.403Z,95748.98
2023-03-05T14:57:24.758Z,95748.05
2023-03-05T14:59:52.016Z,95749.94
2023-03-05T15:02:22.968Z,95745.02
2023-03-05T15:04:49.672Z,95749.62
2023-03-05T15:07:29.216Z,95755.52
2023-03-05T15:09:57.338Z,95750.61
2023-03-05T15:12:24.173Z,95748.52
2023-03-05T15:14:55.283Z,95755.13
2023-03-05T15:17:30.456Z,95751.33
2023-03-05T15:19:57.355Z,95753.88
2023-03-05T15:22:24.088Z,95753.17
2023-03-05T15:24:50.726Z,95749.02
2023-03-05T15:27:17.689Z,95752.23
2023-03-05T15:29:44.386Z,95751.29
2023-03-05T15:32:11.330Z,95749.20
2023-03-05T15:34:38.318Z,95748.23
2023-03-05T15:37:05.160Z,95752.89
2023-03-05T15:39:32.099Z,95756.30
2023-03-05T15:41:59.558Z,95758.27
2023-03-05T15:44:27.007Z,95758.03
2023-03-05T15:46:56.236Z,95759.38
2023-03-05T15:49:24.102Z,95762.80
2023-03-05T15:51:51.546Z,95762.35
2023-03-05T15:54:18.790Z,95761.48
2023-03-05T15:56:45.562Z,95762.81
2023-03-05T15:59:14.121Z,95762.80
2023-03-05T16:01:48.571Z,95765.52
2023-03-05T16:04:17.072Z,95764.83
2023-03-05T16:06:47.242Z,95768.15
2023-03-05T16:09:15.324Z,95764.85
2023-03-05T16:11:48.611Z,95768.71
2023-03-05T16:14:22.781Z,95764.55
2023-03-05T16:16:51.404Z,95770.30
2023-03-05T16:19:19.275Z,95769.08
2023-03-05T16:21:46.222Z,95773.45
2023-03-05T16:24:13.584Z,95777.80
2023-03-05T16:26:41.343Z,95778.71
2023-03-05T16:29:08.498Z,95776.81
2023-03-05T16:31:40.866Z,95783.45
2023-03-05T16:34:07.919Z,95781.84
2023-03-05T16:36:35.198Z,95779.88
2023-03-05T16:39:04.055Z,95780.02
2023-03-05T16:41:31.334Z,95779.83
2023-03-05T16:43:58.882Z,95784.41
2023-03-05T16:46:27.705Z,95781.38
2023-03-05T16:48:54.606Z,95786.45
2023-03-05T16:51:21.352Z,95786.38
2023-03-05T16:53:48.410Z,95786.40
2023-03-05T16:56:15.557Z,95788.13
2023-03-05T16:58:42.173Z,95791.39
2023-03-05T17:01:15.858Z,95790.88
2023-03-05T17:03:43.514Z,95791.86
2023-03-05T17:06:13.762Z,95796.30
2023-03-05T17:08:42.148Z,95793.39
2023-03-05T17:11:10.176Z,95792.98
2023-03-05T17:13:37.120Z,95800.93
2023-03-05T17:16:05.161Z,95798.23
2023-03-05T17:18:32.480Z,95800.46
2023-03-05T17:21:00.582Z,95802.70
2023-03-05T17:23:27.999Z,95803.59
2023-03-05T17:25:54.961Z,95803.26
2023-03-05T17:28:21.803Z,95813.56
2023-03-05T17:30:48.429Z,95812.43
2023-03-05T17:33:15.216Z,95816.01
2023-03-05T17:35:47.651Z,95814.27
2023-03-05T17:38:14.402Z,95816.33
2023-03-05T17:40:41.282Z,95816.61
2023-03-05T17:43:08.314Z,95815.48
2023-03-05T17:45:35.588Z,95816.87
2023-03-05T17:48:03.104Z,95818.83
2023-03-05T17:50:30.456Z,95817.18
2023-03-05T17:52:57.169Z,95820.69
2023-03-05T17:55:25.164Z,95820.30
2023-03-05T17:57:52.827Z,95819.14
2023-03-05T18:00:25.760Z,95818.88
2023-03-05T18:02:53.673Z,95817.06
2023-03-05T18:05:22.497Z,95817.64
2023-03-05T18:07:50.131Z,95820.23
2023-03-05T18:10:18.588Z,95817.70
2023-03-05T18:12:45.653Z,95817.69
2023-03-05T18:15:14.766Z,95821.59
2023-03-05T18:17:42.113Z,95825.09
2023-03-05T18:20:22.403Z,95824.73
2023-03-05T18:22:49.111Z,95823.30
2023-03-05T18:25:15.853Z,95823.70
2023-03-05T18:27:42.597Z,95820.70
2023-03-05T18:30:10.167Z,95828.63
2023-03-05T18:32:36.912Z,95824.33
2023-03-05T18:35:05.569Z,95825.39
2023-03-05T18:37:32.163Z,95824.98
2023-03-05T18:39:59.022Z,95823.04
2023-03-05T18:42:25.800Z,95824.27
2023-03-05T18:44:52.638Z,95823.84
2023-03-05T18:47:19.477Z,95824.13
2023-03-05T18:49:46.432Z,95823.08
2023-03-05T18:52:13.364Z,95821.91
2023-03-05T18:54:40.529Z,95823.61
2023-03-05T18:57:08.484Z,95820.81
2023-03-05T18:59:35.125Z,95820.17
2023-03-05T19:02:01.765Z,95821.99
2023-03-05T19:04:28.853Z,95823.67
2023-03-05T19:06:55.765Z,95821.34
2023-03-05T19:09:52.713Z,95823.14
2023-03-05T19:12:21.094Z,95822.98
2023-03-05T19:14:48.036Z,95824.45
2023-03-05T19:17:15.293Z,95822.08
2023-03-05T19:19:44.703Z,95824.31
2023-03-05T19:22:11.952Z,95824.70
2023-03-05T19:24:38.780Z,95830.92
2023-03-05T19:27:13.006Z,95833.15
2023-03-05T19:29:41.588Z,95828.59
2023-03-05T19:32:13.686Z,95830.70
2023-03-05T19:34:41.214Z,95836.98
2023-03-05T19:37:08.061Z,95834.59
2023-03-05T19:39:35.197Z,95836.34
2023-03-05T19:42:03.184Z,95843.02
2023-03-05T19:44:30.926Z,95840.90
2023-03-05T19:46:57.679Z,95841.41
2023-03-05T19:49:24.434Z,95843.09
2023-03-05T19:51:51.249Z,95839.94
2023-03-05T19:54:19.528Z,95842.45
2023-03-05T19:56:48.297Z,95836.77
2023-03-05T19:59:17.521Z,95835.22
2023-03-05T20:01:45.214Z,95836.36
2023-03-05T20:04:15.101Z,95836.79
2023-03-05T20:06:45.040Z,95836.83
2023-03-05T20:09:12.258Z,95835.29
2023-03-05T20:11:40.796Z,95836.27
2023-03-05T20:14:08.710Z,95837.98
2023-03-05T20:16:37.302Z,95832.95
2023-03-05T20:19:06.702Z,95834.63
2023-03-05T20:21:38.607Z,95831.89
2023-03-05T20:24:09.771Z,95833.56
2023-03-05T20:26:38.414Z,95832.94
2023-03-05T20:29:06.054Z,95829.25
2023-03-05T20:31:36.279Z,95829.77
2023-03-05T20:34:14.749Z,95830.83
2023-03-05T20:36:41.735Z,95828.00
2023-03-05T20:39:08.685Z,95830.53
2023-03-05T20:41:37.381Z,95822.81
2023-03-05T20:44:04.246Z,95820.16
2023-03-05T20:46:33.965Z,95820.32
2023-03-05T20:49:02.111Z,95821.23
2023-03-05T20:51:38.757Z,95813.72
2023-03-05T20:54:06.884Z,95816.89
2023-03-05T20:56:34.727Z,95813.86
2023-03-05T20:59:04.968Z,95811.64
2023-03-05T21:01:34.856Z,95811.48
2023-03-05T21:04:02.334Z,95811.08
2023-03-05T21:06:30.337Z,95814.27
2023-03-05T21:08:57.966Z,95814.93
2023-03-05T21:11:25.812Z,95812.15
2023-03-05T21:13:52.762Z,95814.70
2023-03-05T21:16:23.367Z,95815.43
2023-03-05T21:18:50.651Z,95817.27
2023-03-05T21:21:18.121Z,95817.84
2023-03-05T21:23:45.659Z,95818.81
2023-03-05T21:26:13.514Z,95822.74
2023-03-05T21:28:40.835Z,95817.61
2023-03-05T21:31:19.327Z,95815.20
2023-03-05T21:33:46.164Z,95814.41
2023-03-05T21:36:12.987Z,95813.10
2023-03-05T21:38:40.034Z,95810.52
2023-03-05T21:41:06.660Z,95804.98
2023-03-05T21:43:34.125Z,95804.64
2023-03-05T21:46:02.443Z,95806.83
2023-03-05T21:48:30.166Z,95803.31
2023-03-05T21:50:57.712Z,95803.92
2023-03-05T21:53:25.270Z,95800.15
2023-03-05T21:56:10.165Z,95804.89
2023-03-05T21:58:38.981Z,95801.16
2023-03-05T22:01:05.556Z,95802.98
2023-03-05T22:03:32.904Z,95801.95
2023-03-05T22:06:00.177Z,95806.17
2023-03-05T22:08:29.273Z,95802.31
2023-03-05T22:10:56.019Z,95797.90
2023-03-05T22:13:22.752Z,95796.68
2023-03-05T22:15:54.778Z,95795.91
2023-03-05T22:18:22.897Z,95790.59
2023-03-05T22:20:50.158Z,95782.02
2023-03-05T22:23:18.111Z,95772.81
2023-03-05T22:25:44.948Z,95768.81
2023-03-05T22:28:12.688Z,95766.71
2023-03-05T22:30:44.042Z,95766.64
2023-03-05T22:33:11.721Z,95765.84
2023-03-05T22:35:40.247Z,95768.29
2023-03-05T22:38:09.203Z,95766.77
2023-03-05T22:40:38.707Z,95766.05
2023-03-05T22:43:05.352Z,95766.98
2023-03-05T22:45:32.302Z,95768.45
2023-03-05T22:47:59.552Z,95764.14
2023-03-05T22:50:26.610Z,95762.94
2023-03-05T22:52:53.726Z,95763.33
2023-03-05T22:55:20.990Z,95765.96
2023-03-05T22:57:47.726Z,95762.15
2023-03-05T23:00:20.783Z,95761.61
2023-03-05T23:02:47.679Z,95761.55
2023-03-05T23:05:14.727Z,95760.40
2023-03-05T23:07:43.195Z,95757.90
2023-03-05T23:10:13.094Z,95754.86
2023-03-05T23:12:45.825Z,95758.23
2023-03-05T23:15:22.226Z,95755.84
2023-03-05T23:17:48.894Z,95754.50
2023-03-05T23:20:17.388Z,95754.09
2023-03-05T23:22:44.627Z,95757.35
2023-03-05T23:25:12.965Z,95760.88
2023-03-05T23:27:40.688Z,95764.95
2023-03-05T23:30:20.681Z,95763.73
2023-03-05T23:32:59.460Z,95762.41
2023-03-05T23:35:30.644Z,95766.63
2023-03-05T23:37:58.766Z,95764.63
2023-03-05T23:40:28.019Z,95763.19
2023-03-05T23:42:54.812Z,95760.04
2023-03-05T23:45:23.283Z,95762.20
2023-03-05T23:47:51.049Z,95759.67
2023-03-05T23:50:30.209Z,95765.31
2023-03-05T23:52:57.442Z,95761.16
2023-03-05T23:55:27.254Z,95757.34
2023-03-05T23:57:54.719Z,95760.64
